AGROMETEOROLOŠKI PORTAL

vinorodna pokrajina

Temelj dobrega kmetovanja

Pregled podatkov za lokacijo MARIBOR - LETALIŠČE ARSO, meteorološka postaja 121

Pregled senzorjev na lokaciji

ID Ime Zadnja
vrednost
Datum in čas
meritve
(lokalni čas)
Tip
senzorja
6038 Zračni tlak (hPa) 1005 hPa 6.2.2023 01:30 ARSO
2661 Sončno sevanje (W/m2) 0 W/m2 6.2.2023 01:30 ARSO
2667 Padavine (mm) 0 mm 6.2.2023 01:30 ARSO
2675 Relativna zračna vlaga (2 m) (% RH) 81 % RH 6.2.2023 01:30 ARSO
5959 Temperatura tal (10 cm) (°C) 1,7 °C 6.2.2023 01:30 ARSO
5960 Temperatura tal (30 cm) (°C) 2,8 °C 6.2.2023 01:30 ARSO
5961 Temperatura tal (5 cm) (°C) 0,6 °C 6.2.2023 01:30 ARSO
2674 Temperatura (2 m) (°C) -5,8 °C 6.2.2023 01:30 ARSO
5963 Smer vetra (2 m) (°) 328 ° 6.2.2023 01:30 ARSO
5962 Hitrost vetra (2 m) (km/h) 7 km/h 6.2.2023 01:30 ARSO

Pregled podatkov zadnjih 24 ur

Zap.
št.
Datum in čas
(lokalni čas)
MARIBOR - LETALIŠČE ARSO
Zračni
tlak
Sončno
sevanje
Padavine Relativna
zračna
vlaga
(2
m)
Temperatura
tal
(10
cm)
Temperatura
tal
(30
cm)
Temperatura
tal
(5
cm)
Temperatura
(2
m)
Smer
vetra
(2
m)
Hitrost
vetra
(2
m)
1 6.2.2023 01:30 1004,8 0 0 81 1,7 2,8 0,6 -5,8 328 7
2 6.2.2023 01:00 1004,6 0 0 81 1,7 2,8 0,7 -5,9 342 4
3 6.2.2023 00:30 1004,5 0 0 81 1,7 2,8 0,7 -5,9 2 5
4 6.2.2023 00:00 1004,4 0 0 80 1,7 2,8 0,7 -5,4 337 6
5 5.2.2023 23:30 1004,1 0 0 78 1,8 2,8 0,8 -5 2 3
6 5.2.2023 23:00 1003,9 0 0 76 1,8 2,8 0,8 -4,6 340 3
7 5.2.2023 22:30 1003,7 0 0 74 1,8 2,8 0,8 -4,5 305 4
8 5.2.2023 22:00 1003,4 0 0 77 1,8 2,9 0,9 -4,4 337 5
9 5.2.2023 21:30 1003,3 0 0 72 1,9 2,8 0,9 -3,8 360 4
10 5.2.2023 21:00 1003,1 0 0 67 1,9 2,9 1 -3,1 55 2
11 5.2.2023 20:30 1003 0 0 69 1,9 2,9 1 -3 295 2
12 5.2.2023 20:00 1002,7 0 0 68 1,9 2,8 1 -2,8 288 3
13 5.2.2023 19:30 1002,5 0 0 65 1,9 2,8 1 -2,4 277 5
14 5.2.2023 19:00 1002,2 0 0 63 1,9 2,8 1,1 -1,9 9 3
15 5.2.2023 18:30 1002,1 0 0 56 2 2,8 1,2 -1,1 62 6
16 5.2.2023 18:00 1002 0 0 53 2 2,9 1,2 -0,6 81 11
17 5.2.2023 17:30 1001,7 1 0 48 2 2,9 1,4 0,2 99 9
18 5.2.2023 17:00 1001,4 17 0 43 2 2,9 1,4 0,9 68 9
19 5.2.2023 16:30 1001,3 87 0 41 1,9 2,9 1,5 1,7 59 11
20 5.2.2023 16:00 1001,3 173 0 40 1,9 2,9 1,5 2 54 11
21 5.2.2023 15:30 1001,1 255 0 40 1,8 2,9 1,2 2,3 47 13
22 5.2.2023 15:00 1001,3 333 0 41 1,8 2,9 1 2,6 47 10
23 5.2.2023 14:30 1001,3 396 0 42 1,8 2,9 0,8 2,6 22 14
24 5.2.2023 14:00 1001,4 441 0 42 1,8 2,9 0,7 2,5 11 14
25 5.2.2023 13:30 1001,7 368 0 42 1,8 3 0,7 1,9 25 12
26 5.2.2023 13:00 1002 481 0 42 1,8 3 0,7 2,1 38 13
27 5.2.2023 12:30 1002,3 494 0 42 1,8 3 0,7 1,7 22 13
28 5.2.2023 12:00 1002,6 431 0 43 1,8 3 0,7 1,3 33 15
29 5.2.2023 11:30 1003 281 0 47 1,8 3 0,8 0,7 22 15
30 5.2.2023 11:00 1003,4 288 0 47 1,8 3 0,7 0,6 7 14
31 5.2.2023 10:30 1003,5 384 0 48 1,9 3,1 0,8 0,4 4 16
32 5.2.2023 10:00 1003,7 323 0 50 1,9 3,1 0,7 0 20 13
33 5.2.2023 09:30 1003,6 249 0 53 1,9 3,1 0,8 -0,5 11 14
34 5.2.2023 09:00 1003,5 178 0 56 1,9 3,1 0,8 -1,1 3 13
35 5.2.2023 08:30 1003,4 101 0 62 2 3,1 0,8 -1,9 356 8
36 5.2.2023 08:00 1003 35 0 70 2 3,2 0,9 -2,9 356 10
37 5.2.2023 07:30 1002,6 2 0 74 2 3,2 0,9 -3 347 9
38 5.2.2023 07:00 1002,2 0 0 75 2 3,2 0,9 -2,7 347 9
39 5.2.2023 06:30 1002,1 0 0 75 2 3,2 0,9 -2,2 3 6
40 5.2.2023 06:00 1002,1 0 0 79 2,1 3,3 1 -2,4 7 6
41 5.2.2023 05:30 1001,9 0 0 80 2,1 3,3 1 -2,3 342 8
42 5.2.2023 05:00 1001,9 0 0 81 2,1 3,3 1 -2,3 317 7
43 5.2.2023 04:30 1001,8 0 0 82 2,2 3,3 1 -2,7 316 6
44 5.2.2023 04:00 1001,7 0 0 82 2,2 3,3 1 -2,9 281 7
45 5.2.2023 03:30 1001,6 0 0 80 2,2 3,3 1,1 -2,8 168 4
46 5.2.2023 03:00 1001,5 0 0 75 2,3 3,4 1,1 -2 91 7
47 5.2.2023 02:30 1001,4 0 0 60 2,3 3,4 1,2 -1,3 99 10
48 5.2.2023 02:00 1001,4 0 0 54 2,4 3,4 1,2 -0,8 8 4